Ban Naphan, Lao Peoples Republic

8:26 AM +07 on May 01, 2017 (GMT +0700)
Savannakhet | | Change Station

Elev 476 ft 16.55 °N, 104.65 °E | Updated 26 minutes ago

Partly Cloudy
Partly Cloudy
84 °F
Feels Like 98 °F
N
2
Wind Variable Wind from West

Today
High -- | Low -- °F
--% Chance of Precip.
Yesterday
High -- | Low -- °F
Precip. -- in
Pressure 29.92 in
Visibility 3.1 miles
Clouds Scattered Clouds 2000 ft
Scattered Clouds 10000 ft
Heat Index 98 °F
Dew Point 81 °F
Humidity 89%
Rainfall 0.00 in
Snow Depth Not available.
5:35 AM 6:19 PM
Waxing Crescent, 28% visible
METAR VLSK 010100Z 27002KT 5000 BR SCT020 SCT100 29/27 Q1013 NOSIG
Pressure 29.92 in
Visibility 3.1 miles
Clouds Scattered Clouds 2000 ft
Scattered Clouds 10000 ft
Heat Index 98 °F
Dew Point 81 °F
Humidity 89%
Rainfall 0.00 in
Snow Depth Not available.
5:35 AM 6:19 PM
Waxing Crescent, 28% visible
METAR VLSK 010100Z 27002KT 5000 BR SCT020 SCT100 29/27 Q1013 NOSIG

Get Severe Weather Alerts

Thanks for signing up!

Be on the lookout for a verification email in your inbox.

You'll start receiving the daily forecast at 8 AM.

×

10-Day Weather Forecast

No radar image for this location.
×

Almanac

Astronomy

May. 01, 2017 Rise Set
Actual Time
Civil Twilight
Nautical Twilight
Astronomical Twilight
Moon
Length of Visible Light
Length of Day
Tomorrow will be .
, % of the Moon is Illuminated

Today's Extremes

Country Highs Country Lows

Community

WunderPhotos

WunderBlog® & News

Nearby

Air Quality

  Air Quality AQ Index Pollutant
Not available.

Snow Depth

Station Depth Elevation

Earthquake Activity

City Distance Mag. Time & Date
Minimum magnitude displayed is 2.5.

Coastal Water Temperatures

Place Temperature

Stations

Nearby Weather Stations

Station Location Temp. Windchill Dew Point Humidity Wind Precip. Elev Updated Type